Time;durP1;ratioP1;P1;durP2;ratioP2;P2;SDS_P1;SDS_P2;PMS_P1;PMS_P2;Temp;Humidity;BMP_temperature;BMP_pressure;BME280_temperature;BME280_humidity;BME280_pressure;Samples;Min_cycle;Max_cycle;Signal;HPM_P1;HPM_P2
2023/08/25 00:01:16;;;;;;;14.57;11.55;;;;;;;22.62;nan;100380.63;5038495;28;20578;-71
2023/08/25 00:03:41;;;;;;;18.80;11.18;;;;;;;22.57;nan;100370.81;5038989;28;20041;-66
2023/08/25 00:06:07;;;;;;;15.77;11.13;;;;;;;22.60;nan;100377.44;5056263;28;20036;-67
2023/08/25 00:08:32;;;;;;;13.77;10.43;;;;;;;22.51;nan;100370.16;5053276;28;20025;-65
2023/08/25 00:10:58;;;;;;;23.83;11.10;;;;;;;22.57;nan;100376.16;5038997;28;20021;-66
2023/08/25 00:13:23;;;;;;;17.85;10.70;;;;;;;22.45;nan;100354.47;5050855;28;20107;-68
2023/08/25 00:15:49;;;;;;;15.57;11.30;;;;;;;22.43;nan;100360.13;5052357;28;20025;-70
2023/08/25 00:18:15;;;;;;;16.17;10.68;;;;;;;22.30;nan;100348.38;5052050;28;20036;-69
2023/08/25 00:20:41;;;;;;;13.95;10.70;;;;;;;22.35;nan;100352.03;5036247;28;20053;-71
2023/08/25 00:23:07;;;;;;;16.77;11.20;;;;;;;22.31;nan;100362.56;5051106;28;20038;-70
2023/08/25 00:25:33;;;;;;;16.42;10.57;;;;;;;22.30;nan;100359.09;5054700;28;20570;-71
2023/08/25 00:27:58;;;;;;;17.23;10.05;;;;;;;22.24;nan;100370.25;5051331;28;20036;-71
2023/08/25 00:30:24;;;;;;;17.17;10.75;;;;;;;22.23;nan;100366.78;5033718;28;20108;-71
2023/08/25 00:32:49;;;;;;;18.85;10.93;;;;;;;22.18;nan;100358.03;5035310;28;20075;-70
2023/08/25 00:35:15;;;;;;;16.80;10.98;;;;;;;22.20;nan;100364.72;5055841;28;20020;-70
2023/08/25 00:37:40;;;;;;;14.23;10.55;;;;;;;22.13;nan;100375.03;5054118;28;20033;-70
2023/08/25 00:40:06;;;;;;;16.55;10.00;;;;;;;22.09;nan;100371.38;5054605;28;20024;-71
2023/08/25 00:42:32;;;;;;;13.43;10.52;;;;;;;22.03;nan;100364.53;5054654;28;20127;-71
2023/08/25 00:44:57;;;;;;;18.67;11.18;;;;;;;21.99;nan;100367.03;5052181;28;20144;-71
2023/08/25 00:47:24;;;;;;;15.32;10.95;;;;;;;21.97;nan;100369.19;5052758;28;20482;-71
2023/08/25 00:49:50;;;;;;;16.48;11.40;;;;;;;21.92;nan;100369.31;5051723;28;20089;-71
2023/08/25 00:52:18;;;;;;;16.83;10.70;;;;;;;21.87;nan;100370.22;5055267;28;20524;-71
2023/08/25 00:54:44;;;;;;;16.75;11.65;;;;;;;21.84;nan;100370.03;5055054;28;20436;-71
2023/08/25 00:57:09;;;;;;;13.85;11.35;;;;;;;21.80;nan;100371.72;5055211;28;20021;-72
2023/08/25 00:59:35;;;;;;;16.10;11.18;;;;;;;21.72;nan;100367.88;5052320;28;20441;-71
2023/08/25 01:02:01;;;;;;;15.95;11.30;;;;;;;21.64;nan;100363.22;5054028;28;20040;-71
2023/08/25 01:04:26;;;;;;;18.33;12.07;;;;;;;21.58;nan;100369.78;5055090;28;20032;-70
2023/08/25 01:06:54;;;;;;;15.45;10.35;;;;;;;21.59;nan;100379.38;5053200;28;20440;-71
2023/08/25 01:09:20;;;;;;;15.52;11.57;;;;;;;21.49;nan;100375.03;5035629;28;20895;-70
2023/08/25 01:11:59;;;;;;;21.67;11.95;;;;;;;21.49;nan;100401.03;5052579;28;20471;-71
2023/08/25 01:15:08;;;;;;;18.38;10.90;;;;;;;21.24;nan;100371.75;5042532;28;20032;-71
2023/08/25 01:17:42;;;;;;;;;;;;;;;21.28;nan;100412.09;4980487;28;20492;-71
2023/08/25 01:20:09;;;;;;;18.88;11.38;;;;;;;21.25;nan;100407.34;4981015;28;20376;-71
2023/08/25 01:22:46;;;;;;;17.77;11.70;;;;;;;21.22;nan;100403.38;4981667;28;20031;-72
2023/08/25 01:25:25;;;;;;;20.85;12.18;;;;;;;21.20;nan;100410.91;4982963;28;20050;-71
2023/08/25 01:27:52;;;;;;;17.05;12.13;;;;;;;21.13;nan;100404.34;4984081;28;20217;-71
2023/08/25 01:30:17;;;;;;;20.80;13.13;;;;;;;21.17;nan;100405.34;4983728;28;20045;-69
2023/08/25 01:32:43;;;;;;;19.85;12.90;;;;;;;21.14;nan;100411.28;4979185;28;20050;-71
2023/08/25 01:35:12;;;;;;;19.08;13.32;;;;;;;21.09;nan;100409.50;4979958;28;20066;-69
2023/08/25 01:37:48;;;;;;;17.57;12.57;;;;;;;21.06;nan;100406.63;4982530;28;20110;-71
2023/08/25 01:40:30;;;;;;;22.95;12.88;;;;;;;20.99;nan;100407.00;4978267;28;20346;-72
2023/08/25 01:42:56;;;;;;;21.20;12.88;;;;;;;20.93;nan;100392.13;4984890;28;20027;-71
2023/08/25 01:45:23;;;;;;;20.67;12.32;;;;;;;20.95;nan;100397.97;4981311;28;20162;-71
2023/08/25 01:47:50;;;;;;;16.08;11.95;;;;;;;21.00;nan;100406.72;4979569;28;20023;-71
2023/08/25 01:50:19;;;;;;;22.40;12.55;;;;;;;20.95;nan;100395.28;4981668;28;20034;-71
2023/08/25 01:52:44;;;;;;;17.75;12.23;;;;;;;20.94;nan;100404.41;5058452;28;20029;-71
2023/08/25 01:55:10;;;;;;;20.10;12.68;;;;;;;21.00;nan;100411.28;5056124;28;20027;-72
2023/08/25 01:57:35;;;;;;;15.90;12.18;;;;;;;20.92;nan;100401.22;5056625;28;20691;-71
2023/08/25 02:00:01;;;;;;;20.30;12.32;;;;;;;20.79;nan;100378.72;5056791;28;20039;-71
2023/08/25 02:02:26;;;;;;;19.52;12.57;;;;;;;21.01;nan;100419.00;5057992;28;20055;-71
2023/08/25 02:04:51;;;;;;;18.67;12.45;;;;;;;21.01;nan;100424.34;5058977;28;20027;-72
2023/08/25 02:07:17;;;;;;;20.55;13.02;;;;;;;20.95;nan;100435.44;5057590;28;20550;-72
2023/08/25 02:09:42;;;;;;;16.52;12.45;;;;;;;20.89;nan;100441.97;5057163;28;20043;-72
2023/08/25 02:12:08;;;;;;;18.73;12.50;;;;;;;20.89;nan;100439.28;5054744;28;20021;-72
2023/08/25 02:14:33;;;;;;;21.27;13.52;;;;;;;20.88;nan;100435.00;5055926;28;20037;-71
2023/08/25 02:16:58;;;;;;;17.95;11.82;;;;;;;20.85;nan;100447.09;5038004;28;20040;-70
2023/08/25 02:19:24;;;;;;;17.45;12.55;;;;;;;20.81;nan;100448.78;5057855;28;20017;-72
2023/08/25 02:21:49;;;;;;;19.98;13.18;;;;;;;20.62;nan;100442.69;5055880;28;20554;-72
2023/08/25 02:24:14;;;;;;;22.27;12.77;;;;;;;20.67;nan;100450.63;5057685;28;20383;-72
2023/08/25 02:26:40;;;;;;;18.80;12.50;;;;;;;20.64;nan;100446.66;5021941;28;20085;-72
2023/08/25 02:29:05;;;;;;;19.88;13.32;;;;;;;20.69;nan;100451.91;5055934;28;20079;-72
2023/08/25 02:31:31;;;;;;;19.60;12.32;;;;;;;20.72;nan;100455.88;5056350;28;20093;-72
2023/08/25 02:33:56;;;;;;;17.90;11.88;;;;;;;20.73;nan;100444.09;5029372;28;20056;-72
2023/08/25 02:36:21;;;;;;;26.23;12.20;;;;;;;20.74;nan;100441.13;5037882;28;20061;-72
2023/08/25 02:38:47;;;;;;;18.80;11.98;;;;;;;20.78;nan;100444.00;5054837;28;20107;-71
2023/08/25 02:41:12;;;;;;;17.40;12.55;;;;;;;20.80;nan;100445.31;5056994;28;20021;-71
2023/08/25 02:43:38;;;;;;;17.60;12.57;;;;;;;20.75;nan;100441.91;5042118;28;20025;-71
2023/08/25 02:46:03;;;;;;;15.23;11.77;;;;;;;20.70;nan;100436.66;5040440;28;20028;-71
2023/08/25 02:48:29;;;;;;;15.80;11.45;;;;;;;20.63;nan;100450.41;5053697;28;20051;-72
2023/08/25 02:50:54;;;;;;;24.23;11.88;;;;;;;20.56;nan;100450.75;5056707;28;20060;-70
2023/08/25 02:53:20;;;;;;;18.77;13.18;;;;;;;20.51;nan;100453.47;5035508;28;20040;-71
2023/08/25 02:55:46;;;;;;;17.40;12.73;;;;;;;20.45;nan;100437.78;5058000;28;20544;-71
2023/08/25 02:58:11;;;;;;;21.75;13.25;;;;;;;20.38;nan;100432.81;5055788;28;20021;-71
2023/08/25 03:00:37;;;;;;;19.02;12.90;;;;;;;20.32;nan;100428.63;5039251;28;20087;-71
2023/08/25 03:03:03;;;;;;;20.52;13.02;;;;;;;20.23;nan;100435.69;5036012;28;20035;-71
2023/08/25 03:05:28;;;;;;;21.10;13.10;;;;;;;20.10;nan;100438.00;5054360;28;20025;-71
2023/08/25 03:07:54;;;;;;;19.15;12.90;;;;;;;20.11;nan;100439.59;5054668;28;20040;-71
2023/08/25 03:10:19;;;;;;;21.17;13.43;;;;;;;20.10;nan;100442.56;5053646;28;20615;-71
2023/08/25 03:12:44;;;;;;;24.02;13.25;;;;;;;20.08;nan;100437.50;5054426;28;20533;-70
2023/08/25 03:15:10;;;;;;;17.88;13.10;;;;;;;20.07;nan;100425.22;5056813;28;20028;-71
2023/08/25 03:17:35;;;;;;;19.52;13.45;;;;;;;19.93;nan;100405.63;5056600;28;20931;-71
2023/08/25 03:20:02;;;;;;;20.77;13.35;;;;;;;19.98;nan;100422.38;5054944;28;20729;-71
2023/08/25 03:22:28;;;;;;;20.00;12.98;;;;;;;19.94;nan;100423.22;5054362;28;20036;-71
2023/08/25 03:24:53;;;;;;;24.48;13.60;;;;;;;19.97;nan;100428.81;5053490;28;20041;-71
2023/08/25 03:27:19;;;;;;;22.60;14.45;;;;;;;19.94;nan;100420.56;5055713;28;20032;-70
2023/08/25 03:29:44;;;;;;;21.70;13.18;;;;;;;19.86;nan;100410.53;5054607;28;20074;-71
2023/08/25 03:32:10;;;;;;;19.42;13.27;;;;;;;19.94;nan;100421.38;5056336;28;20036;-71
2023/08/25 03:34:35;;;;;;;18.77;12.77;;;;;;;19.83;nan;100421.78;5055119;28;20481;-70
2023/08/25 03:37:02;;;;;;;18.40;12.40;;;;;;;19.77;nan;100416.47;5039067;28;20052;-71
2023/08/25 03:39:28;;;;;;;19.45;12.23;;;;;;;19.65;nan;100416.06;5040790;28;20855;-72
2023/08/25 03:41:53;;;;;;;18.63;12.93;;;;;;;19.67;nan;100423.81;5053185;28;20146;-71
2023/08/25 03:44:18;;;;;;;18.40;11.80;;;;;;;19.65;nan;100420.63;5038752;28;20024;-71
2023/08/25 03:46:45;;;;;;;23.17;12.93;;;;;;;19.62;nan;100405.97;5054808;28;20020;-71
2023/08/25 03:49:10;;;;;;;20.02;11.90;;;;;;;19.57;nan;100422.03;5056929;28;20033;-72
2023/08/25 03:51:36;;;;;;;20.88;12.80;;;;;;;19.57;nan;100416.69;5055614;28;20043;-71
2023/08/25 03:54:01;;;;;;;20.40;12.40;;;;;;;19.49;nan;100419.97;5055484;28;20024;-72
2023/08/25 03:56:27;;;;;;;18.13;12.60;;;;;;;19.42;nan;100419.53;5054478;28;20029;-71
2023/08/25 03:58:52;;;;;;;16.55;11.38;;;;;;;19.39;nan;100417.44;5036596;28;20487;-69
2023/08/25 04:01:17;;;;;;;25.35;11.95;;;;;;;19.22;nan;100413.31;5053520;28;20536;-71
2023/08/25 04:03:43;;;;;;;20.67;12.65;;;;;;;19.31;nan;100419.63;5055750;28;20675;-72
2023/08/25 04:06:09;;;;;;;21.30;12.25;;;;;;;19.23;nan;100424.81;5054332;28;20029;-71
2023/08/25 04:08:34;;;;;;;17.45;12.30;;;;;;;19.22;nan;100412.53;5055594;28;20031;-71
2023/08/25 04:10:59;;;;;;;22.60;12.38;;;;;;;19.30;nan;100417.28;5056388;28;20037;-72
2023/08/25 04:13:25;;;;;;;19.45;12.30;;;;;;;19.24;nan;100405.81;5035388;28;20755;-71
2023/08/25 04:15:57;;;;;;;17.00;12.32;;;;;;;19.27;nan;100412.47;5050915;28;20029;-71
2023/08/25 04:18:24;;;;;;;19.30;12.10;;;;;;;19.26;nan;100409.00;5038627;28;20398;-72
2023/08/25 04:20:49;;;;;;;20.42;12.00;;;;;;;19.23;nan;100414.94;5056103;28;20039;-72
2023/08/25 04:23:15;;;;;;;19.15;11.95;;;;;;;19.29;nan;100413.78;5055575;28;20398;-71
2023/08/25 04:25:40;;;;;;;25.55;12.10;;;;;;;19.23;nan;100412.25;5051406;28;20124;-71
2023/08/25 04:28:06;;;;;;;18.05;11.85;;;;;;;19.22;nan;100412.53;5054012;28;20064;-72
2023/08/25 04:30:31;;;;;;;20.27;12.07;;;;;;;19.26;nan;100408.22;5058838;28;20029;-70
2023/08/25 04:32:57;;;;;;;17.10;11.93;;;;;;;19.31;nan;100411.63;5059331;28;20604;-71
2023/08/25 04:35:22;;;;;;;16.92;12.27;;;;;;;19.37;nan;100430.25;5053607;28;20025;-71
2023/08/25 04:37:48;;;;;;;16.25;11.93;;;;;;;19.45;nan;100427.78;5055414;28;20021;-72
2023/08/25 04:40:14;;;;;;;24.13;12.65;;;;;;;19.52;nan;100443.47;5053939;28;20075;-71
2023/08/25 04:42:41;;;;;;;20.05;11.43;;;;;;;19.54;nan;100431.44;5056422;28;20033;-71
2023/08/25 04:45:08;;;;;;;20.13;11.82;;;;;;;19.51;nan;100421.31;5053613;28;20033;-71
2023/08/25 04:47:33;;;;;;;16.13;11.30;;;;;;;19.54;nan;100419.94;5057887;28;20028;-70
2023/08/25 04:50:02;;;;;;;17.05;11.00;;;;;;;19.66;nan;100446.28;5037435;28;20482;-71
2023/08/25 04:52:27;;;;;;;16.02;11.50;;;;;;;19.69;nan;100446.50;5034392;28;20056;-69
2023/08/25 04:54:53;;;;;;;17.30;11.25;;;;;;;19.75;nan;100457.94;5052800;28;20085;-71
2023/08/25 04:57:18;;;;;;;16.48;10.88;;;;;;;19.77;nan;100455.78;5053273;28;20402;-71
2023/08/25 04:59:43;;;;;;;16.20;11.50;;;;;;;19.80;nan;100452.56;5043273;28;20497;-71
2023/08/25 05:02:09;;;;;;;19.00;11.35;;;;;;;19.87;nan;100463.69;5054194;28;20029;-71
2023/08/25 05:04:34;;;;;;;15.90;11.20;;;;;;;19.95;nan;100459.59;5023200;28;20035;-72
2023/08/25 05:06:59;;;;;;;18.15;11.07;;;;;;;20.00;nan;100461.41;5053184;28;20074;-71
2023/08/25 05:09:25;;;;;;;16.83;10.95;;;;;;;20.04;nan;100468.56;5034487;28;20028;-72
2023/08/25 05:11:50;;;;;;;17.17;11.05;;;;;;;19.86;nan;100434.56;5056247;28;20364;-68
2023/08/25 05:14:16;;;;;;;17.88;11.15;;;;;;;20.16;nan;100468.94;5052710;28;20471;-67
2023/08/25 05:16:41;;;;;;;15.18;11.25;;;;;;;20.21;nan;100468.09;5036890;28;20023;-68
2023/08/25 05:19:09;;;;;;;26.73;12.15;;;;;;;20.31;nan;100475.97;5052764;28;20166;-68
2023/08/25 05:21:34;;;;;;;19.17;11.15;;;;;;;20.35;nan;100465.47;5049145;28;20048;-68
2023/08/25 05:24:35;;;;;;;17.13;10.88;;;;;;;20.40;nan;100462.75;5048737;28;21077;-68
2023/08/25 05:27:00;;;;;;;20.13;10.30;;;;;;;20.49;nan;100468.22;4982772;28;20132;-69
2023/08/25 05:29:27;;;;;;;22.08;11.20;;;;;;;20.56;nan;100461.44;4980845;28;20118;-68
2023/08/25 05:31:54;;;;;;;17.33;10.68;;;;;;;20.60;nan;100459.00;4993296;28;20188;-68
2023/08/25 05:34:19;;;;;;;20.17;11.20;;;;;;;20.71;nan;100462.31;4998020;28;20038;-66
2023/08/25 05:36:45;;;;;;;19.35;11.32;;;;;;;20.86;nan;100467.44;4992790;28;20045;-68
2023/08/25 05:39:12;;;;;;;18.08;10.70;;;;;;;20.94;nan;100463.31;4990478;28;20034;-69
2023/08/25 05:41:37;;;;;;;14.10;10.68;;;;;;;21.07;nan;100473.28;4993649;28;20125;-67
2023/08/25 05:44:03;;;;;;;14.48;10.20;;;;;;;21.15;nan;100469.13;4995346;28;20132;-69
2023/08/25 05:46:30;;;;;;;16.17;9.75;;;;;;;21.23;nan;100471.91;4994550;28;20042;-67
2023/08/25 05:48:58;;;;;;;11.98;9.70;;;;;;;21.23;nan;100468.44;4992933;28;20056;-68
2023/08/25 05:51:24;;;;;;;18.20;10.48;;;;;;;21.37;nan;100479.19;4995366;28;20104;-69
2023/08/25 05:53:50;;;;;;;19.65;10.48;;;;;;;21.41;nan;100477.53;4992871;28;20104;-71
2023/08/25 05:56:15;;;;;;;16.23;10.20;;;;;;;21.53;nan;100485.09;4989771;28;20030;-73
2023/08/25 05:58:42;;;;;;;15.73;10.70;;;;;;;21.60;nan;100491.66;4994637;28;20663;-73
2023/08/25 06:01:07;;;;;;;14.35;10.57;;;;;;;21.48;nan;100469.09;5027922;28;20040;-73
2023/08/25 06:03:33;;;;;;;17.73;10.48;;;;;;;21.69;nan;100490.94;5043463;28;20039;-73
2023/08/25 06:05:58;;;;;;;13.77;10.57;;;;;;;21.80;nan;100509.22;5057454;28;20025;-71
2023/08/25 06:08:24;;;;;;;13.63;10.88;;;;;;;21.87;nan;100520.34;5056036;28;20053;-71
2023/08/25 06:10:49;;;;;;;13.50;9.52;;;;;;;21.86;nan;100513.41;5058060;28;20074;-71
2023/08/25 06:13:15;;;;;;;16.85;10.82;;;;;;;21.91;nan;100520.56;5054756;28;20028;-72
2023/08/25 06:15:40;;;;;;;16.27;11.15;;;;;;;21.95;nan;100515.38;5037231;28;20395;-72
2023/08/25 06:18:06;;;;;;;18.42;10.25;;;;;;;22.06;nan;100514.88;5040838;28;20025;-73
2023/08/25 06:20:32;;;;;;;14.30;10.00;;;;;;;22.22;nan;100525.31;5058359;28;20537;-72
2023/08/25 06:22:57;;;;;;;16.55;10.75;;;;;;;22.29;nan;100529.22;5038650;28;20025;-70
2023/08/25 06:25:23;;;;;;;15.57;10.95;;;;;;;22.29;nan;100515.81;5057549;28;20102;-73
2023/08/25 06:27:49;;;;;;;13.25;10.73;;;;;;;22.37;nan;100514.28;5059370;28;20024;-73
2023/08/25 06:30:16;;;;;;;19.15;11.35;;;;;;;22.44;nan;100503.16;5056265;28;20039;-73
2023/08/25 06:32:42;;;;;;;15.10;10.48;;;;;;;22.60;nan;100517.81;5056235;28;20083;-72
2023/08/25 06:35:07;;;;;;;21.00;10.75;;;;;;;22.70;nan;100514.91;5057284;28;20032;-71
2023/08/25 06:37:33;;;;;;;16.27;9.93;;;;;;;22.72;nan;100512.72;5057003;28;20029;-72
2023/08/25 06:39:58;;;;;;;19.45;10.80;;;;;;;22.86;nan;100518.00;5058975;28;20029;-73
2023/08/25 06:42:24;;;;;;;18.08;10.20;;;;;;;22.88;nan;100509.66;5056777;28;20033;-73
2023/08/25 06:44:49;;;;;;;16.00;10.75;;;;;;;23.01;nan;100514.22;5057402;28;20025;-72
2023/08/25 06:47:15;;;;;;;17.83;10.70;;;;;;;23.09;nan;100516.16;5053424;28;20065;-72
2023/08/25 06:49:40;;;;;;;19.13;10.63;;;;;;;23.18;nan;100524.28;5058338;28;20087;-72
2023/08/25 06:52:06;;;;;;;15.52;10.00;;;;;;;23.23;nan;100508.03;5041009;28;20021;-72
2023/08/25 06:54:33;;;;;;;15.63;9.98;;;;;;;23.32;nan;100505.38;5054237;28;20086;-73
2023/08/25 06:56:58;;;;;;;19.05;9.95;;;;;;;23.40;nan;100512.72;5056047;28;20023;-72
2023/08/25 06:59:24;;;;;;;14.90;9.40;;;;;;;23.49;nan;100516.25;5056439;28;20368;-73
2023/08/25 07:01:49;;;;;;;16.85;9.88;;;;;;;23.57;nan;100526.25;5057182;28;20056;-73
2023/08/25 07:04:15;;;;;;;18.52;10.20;;;;;;;23.61;nan;100522.91;5035840;28;20120;-73
2023/08/25 07:06:40;;;;;;;23.10;10.05;;;;;;;23.65;nan;100511.25;5052552;28;20166;-72
2023/08/25 07:09:06;;;;;;;19.42;9.43;;;;;;;23.86;nan;100524.97;5054888;28;20029;-73
2023/08/25 07:11:32;;;;;;;17.58;9.88;;;;;;;23.95;nan;100523.09;5042134;28;20043;-73
2023/08/25 07:13:58;;;;;;;15.90;10.65;;;;;;;24.10;nan;100516.50;5037801;28;20438;-71
2023/08/25 07:16:24;;;;;;;18.23;9.52;;;;;;;24.04;nan;100493.53;5040275;28;20031;-72
2023/08/25 07:18:50;;;;;;;17.02;9.38;;;;;;;24.13;nan;100502.41;5057447;28;20475;-71
2023/08/25 07:21:16;;;;;;;17.38;9.93;;;;;;;24.33;nan;100519.88;5058405;28;20029;-71
2023/08/25 07:23:41;;;;;;;19.77;9.40;;;;;;;24.44;nan;100508.78;5038127;28;20567;-71
2023/08/25 07:26:06;;;;;;;12.68;9.32;;;;;;;24.44;nan;100498.03;5057319;28;20029;-72
2023/08/25 07:28:32;;;;;;;21.33;9.13;;;;;;;24.48;nan;100483.66;5055616;28;20115;-72
2023/08/25 07:30:59;;;;;;;14.93;9.20;;;;;;;24.61;nan;100489.97;5054320;28;20024;-71
2023/08/25 07:33:24;;;;;;;14.27;8.38;;;;;;;24.72;nan;100488.56;5055704;28;20498;-72
2023/08/25 07:35:50;;;;;;;12.48;8.82;;;;;;;24.84;nan;100490.59;5055248;28;20017;-72
2023/08/25 07:38:15;;;;;;;15.00;8.98;;;;;;;25.08;nan;100487.41;5054962;28;20103;-72
2023/08/25 07:40:41;;;;;;;18.70;8.13;;;;;;;25.15;nan;100497.69;5038352;28;20081;-72
2023/08/25 07:43:06;;;;;;;11.45;8.15;;;;;;;24.99;nan;100465.06;5056746;28;20502;-72
2023/08/25 07:45:32;;;;;;;12.82;8.50;;;;;;;25.33;nan;100496.56;5054953;28;20069;-72
2023/08/25 07:47:59;;;;;;;13.50;8.13;;;;;;;25.44;nan;100491.63;5042195;28;20048;-72
2023/08/25 07:50:29;;;;;;;10.27;8.23;;;;;;;25.54;nan;100488.56;5054642;28;20139;-73
2023/08/25 07:52:55;;;;;;;9.77;8.25;;;;;;;25.65;nan;100476.28;5055731;28;20048;-73
2023/08/25 07:55:21;;;;;;;15.13;8.70;;;;;;;25.86;nan;100464.81;5055855;28;20068;-72
2023/08/25 07:57:47;;;;;;;10.23;8.30;;;;;;;26.01;nan;100468.84;5055040;28;20020;-72
2023/08/25 08:00:17;;;;;;;9.68;7.65;;;;;;;25.97;nan;100467.91;5053217;28;20025;-73
2023/08/25 08:02:43;;;;;;;11.57;8.00;;;;;;;26.17;nan;100469.03;5054679;28;20108;-72
2023/08/25 08:05:10;;;;;;;13.10;7.57;;;;;;;26.15;nan;100461.28;5039162;28;20120;-73
2023/08/25 08:07:35;;;;;;;11.27;8.05;;;;;;;26.21;nan;100469.97;5055167;28;20052;-72
2023/08/25 08:10:00;;;;;;;13.38;7.45;;;;;;;26.35;nan;100469.72;5038879;28;20063;-72
2023/08/25 08:12:26;;;;;;;10.52;7.40;;;;;;;26.42;nan;100454.56;5037967;28;20052;-73
2023/08/25 08:14:52;;;;;;;10.02;7.72;;;;;;;26.57;nan;100460.50;5041909;28;20028;-72
2023/08/25 08:17:18;;;;;;;9.48;7.35;;;;;;;26.58;nan;100459.38;5056075;28;20656;-72
2023/08/25 08:19:44;;;;;;;11.25;7.53;;;;;;;26.72;nan;100471.50;5054512;28;20043;-70
2023/08/25 08:22:10;;;;;;;11.88;7.68;;;;;;;26.87;nan;100472.00;5053621;28;20024;-71
2023/08/25 08:24:36;;;;;;;8.82;7.25;;;;;;;26.83;nan;100446.75;5054761;28;20064;-71
2023/08/25 08:27:01;;;;;;;9.88;6.85;;;;;;;26.98;nan;100453.44;5052406;28;20029;-72
2023/08/25 08:29:27;;;;;;;8.70;7.40;;;;;;;27.13;nan;100450.88;5041250;28;20117;-72
2023/08/25 08:31:55;;;;;;;13.10;7.47;;;;;;;27.21;nan;100438.41;5054198;28;20095;-72
2023/08/25 08:34:20;;;;;;;10.63;6.93;;;;;;;27.32;nan;100436.06;5054158;28;20021;-72
2023/08/25 08:36:47;;;;;;;10.48;7.10;;;;;;;27.48;nan;100426.13;5049688;28;20143;-72
2023/08/25 08:39:13;;;;;;;9.45;6.88;;;;;;;27.54;nan;100427.50;5037805;28;20024;-71
2023/08/25 08:41:40;;;;;;;8.60;6.78;;;;;;;27.59;nan;100421.09;5034635;28;20032;-72
2023/08/25 08:44:10;;;;;;;10.32;6.65;;;;;;;27.53;nan;100398.09;5053618;28;20953;-71
2023/08/25 08:46:36;;;;;;;8.60;6.68;;;;;;;27.81;nan;100424.44;5055023;28;20087;-69
2023/08/25 08:49:02;;;;;;;12.57;7.45;;;;;;;28.05;nan;100429.81;5053934;28;20021;-74
2023/08/25 08:51:29;;;;;;;11.27;6.60;;;;;;;28.19;nan;100435.66;5053589;28;20787;-69
2023/08/25 08:53:55;;;;;;;10.63;7.05;;;;;;;28.20;nan;100429.09;5054125;28;20048;-71
2023/08/25 08:56:22;;;;;;;10.98;6.72;;;;;;;28.29;nan;100436.31;5035908;28;20032;-71
2023/08/25 08:58:48;;;;;;;8.68;7.07;;;;;;;28.47;nan;100432.22;5055309;28;20060;-71
2023/08/25 09:01:15;;;;;;;10.57;7.40;;;;;;;28.47;nan;100429.50;5039232;28;20063;-71
2023/08/25 09:03:43;;;;;;;10.70;6.90;;;;;;;28.58;nan;100435.97;5054233;28;20482;-71
2023/08/25 09:06:09;;;;;;;12.45;7.28;;;;;;;28.59;nan;100440.28;5035137;28;20070;-71
2023/08/25 09:08:35;;;;;;;7.28;6.05;;;;;;;28.65;nan;100426.47;5053818;28;20526;-71
2023/08/25 09:11:05;;;;;;;10.95;6.60;;;;;;;28.75;nan;100445.72;5056411;28;20115;-71
2023/08/25 09:13:34;;;;;;;8.32;6.88;;;;;;;28.82;nan;100445.13;5055706;28;20128;-72
2023/08/25 09:16:10;;;;;;;9.10;6.43;;;;;;;28.90;nan;100457.75;5053753;28;20028;-73
2023/08/25 09:18:35;;;;;;;11.70;6.80;;;;;;;28.95;nan;100449.34;5055043;28;20033;-72
2023/08/25 09:21:03;;;;;;;9.15;6.32;;;;;;;28.99;nan;100447.50;5038053;28;20043;-71
2023/08/25 09:23:29;;;;;;;8.65;6.10;;;;;;;29.11;nan;100462.16;5053065;28;20043;-72
2023/08/25 09:25:56;;;;;;;11.55;6.15;;;;;;;29.20;nan;100454.66;5055635;28;20028;-72
2023/08/25 09:28:24;;;;;;;12.30;6.20;;;;;;;29.22;nan;100452.38;5052079;28;20033;-72
2023/08/25 09:30:50;;;;;;;10.90;6.43;;;;;;;29.27;nan;100446.69;5053589;28;20043;-71
2023/08/25 09:33:15;;;;;;;10.40;6.50;;;;;;;29.33;nan;100458.03;5039724;28;20627;-73
2023/08/25 09:35:42;;;;;;;7.85;5.97;;;;;;;29.36;nan;100447.28;5036623;28;20537;-72
2023/08/25 09:38:07;;;;;;;7.13;5.90;;;;;;;29.41;nan;100443.53;5045643;28;20016;-72
2023/08/25 09:40:35;;;;;;;7.20;6.18;;;;;;;29.49;nan;100445.25;5055050;28;20029;-72
2023/08/25 09:43:05;;;;;;;9.57;6.45;;;;;;;29.53;nan;100442.66;5040632;28;20568;-72
2023/08/25 09:45:32;;;;;;;7.32;6.30;;;;;;;29.50;nan;100432.47;5054879;28;20028;-72
2023/08/25 09:48:07;;;;;;;6.60;5.53;;;;;;;29.58;nan;100445.88;5056057;28;20577;-72
2023/08/25 09:50:40;;;;;;;8.88;6.00;;;;;;;29.57;nan;100443.50;5057184;28;20024;-72
2023/08/25 09:53:07;;;;;;;9.45;6.25;;;;;;;29.53;nan;100429.09;5057840;28;20028;-71
2023/08/25 09:55:37;;;;;;;7.53;5.88;;;;;;;29.58;nan;100431.53;5048374;28;20175;-70
2023/08/25 09:58:07;;;;;;;8.30;6.00;;;;;;;29.63;nan;100436.66;5056360;28;20066;-71
2023/08/25 10:00:34;;;;;;;8.15;5.82;;;;;;;29.77;nan;100434.31;5046001;28;20029;-69
2023/08/25 10:03:01;;;;;;;10.07;5.88;;;;;;;29.86;nan;100428.69;5058283;28;20035;-71
2023/08/25 10:05:27;;;;;;;9.07;6.70;;;;;;;29.89;nan;100417.88;5060415;28;20020;-71
2023/08/25 10:07:53;;;;;;;8.73;6.05;;;;;;;29.87;nan;100414.75;5043304;28;20359;-69
2023/08/25 10:10:20;;;;;;;8.68;5.60;;;;;;;29.94;nan;100410.63;5054836;28;20456;-71
2023/08/25 10:12:46;;;;;;;7.22;6.18;;;;;;;29.94;nan;100410.63;5054881;28;20024;-69
2023/08/25 10:15:13;;;;;;;6.03;5.05;;;;;;;30.00;nan;100407.28;5059214;28;20356;-69
2023/08/25 10:17:39;;;;;;;8.50;5.45;;;;;;;30.02;nan;100401.47;5057324;28;20577;-71
2023/08/25 10:20:08;;;;;;;7.57;6.20;;;;;;;30.13;nan;100401.69;5057661;28;20033;-71
2023/08/25 10:22:34;;;;;;;;;;;;;;;30.20;nan;100404.56;5057548;28;20482;-72
2023/08/25 10:25:01;;;;;;;7.55;5.57;;;;;;;30.27;nan;100412.88;5059784;28;19999;-72
2023/08/25 10:27:28;;;;;;;8.82;5.85;;;;;;;30.34;nan;100409.50;5058417;28;20064;-72
2023/08/25 10:29:56;;;;;;;9.63;6.20;;;;;;;30.41;nan;100409.63;5058027;28;20033;-72
2023/08/25 10:32:21;;;;;;;8.43;6.25;;;;;;;30.49;nan;100414.84;5058632;28;20051;-71
2023/08/25 10:34:53;;;;;;;7.57;5.93;;;;;;;30.56;nan;100411.47;5060019;28;20431;-72
2023/08/25 10:37:25;;;;;;;8.23;5.40;;;;;;;30.61;nan;100411.19;5055561;28;20106;-73
2023/08/25 10:40:06;;;;;;;8.18;5.55;;;;;;;30.65;nan;100401.16;5057880;28;20608;-72
2023/08/25 10:42:33;;;;;;;9.77;5.72;;;;;;;30.70;nan;100403.59;5057222;28;20024;-72
2023/08/25 10:45:04;;;;;;;7.40;5.43;;;;;;;30.69;nan;100402.00;5038420;28;20261;-72
2023/08/25 10:47:30;;;;;;;9.38;5.90;;;;;;;30.73;nan;100408.28;5041360;28;20032;-72
2023/08/25 10:50:00;;;;;;;9.80;5.63;;;;;;;30.68;nan;100386.84;5036697;28;20036;-72
2023/08/25 10:52:25;;;;;;;11.68;6.22;;;;;;;30.77;nan;100400.22;5057886;28;20024;-71
2023/08/25 10:54:53;;;;;;;9.30;5.63;;;;;;;30.85;nan;100398.44;5058568;28;20114;-71
2023/08/25 10:57:27;;;;;;;7.18;5.70;;;;;;;30.93;nan;100400.09;5060056;28;20043;-72
2023/08/25 10:59:57;;;;;;;7.07;5.85;;;;;;;31.00;nan;100396.72;5057001;28;20020;-72
2023/08/25 11:02:38;;;;;;;10.10;5.70;;;;;;;31.12;nan;100400.03;5042802;28;20067;-70
2023/08/25 11:05:29;;;;;;;8.95;5.55;;;;;;;31.24;nan;100399.03;5055762;28;20024;-70
2023/08/25 11:08:02;;;;;;;7.85;5.18;;;;;;;31.28;nan;100397.16;5037620;28;20120;-68
2023/08/25 11:10:35;;;;;;;6.70;5.47;;;;;;;31.33;nan;100390.63;5054197;28;20044;-68
2023/08/25 11:13:07;;;;;;;7.68;5.63;;;;;;;31.42;nan;100384.97;5043229;28;20060;-71
2023/08/25 11:15:36;;;;;;;6.97;5.38;;;;;;;31.48;nan;100384.25;5056193;28;20498;-69
2023/08/25 11:18:02;;;;;;;9.23;5.55;;;;;;;31.53;nan;100383.94;5056212;28;20059;-70
2023/08/25 11:20:28;;;;;;;6.13;5.20;;;;;;;31.62;nan;100377.47;5058770;28;20447;-70
2023/08/25 11:22:56;;;;;;;8.60;6.25;;;;;;;31.71;nan;100389.66;5057835;28;20028;-72
2023/08/25 11:25:21;;;;;;;9.98;5.45;;;;;;;31.77;nan;100387.38;5056056;28;20099;-72
2023/08/25 11:27:51;;;;;;;6.72;5.68;;;;;;;31.81;nan;100382.75;5039252;28;20021;-71
2023/08/25 11:30:17;;;;;;;8.20;5.75;;;;;;;31.85;nan;100375.44;5055750;28;20644;-71